Time;durP1;ratioP1;P1;durP2;ratioP2;P2;SDS_P1;SDS_P2;PMS_P1;PMS_P2;Temp;Humidity;BMP_temperature;BMP_pressure;BME280_temperature;BME280_humidity;BME280_pressure;Samples;Min_cycle;Max_cycle;Signal;HPM_P1;HPM_P2
2021/10/01 00:01:54;;;;;;;2.45;1.20;;;;;;;;;;5108830;28;20069;-65
2021/10/01 00:04:25;;;;;;;3.97;1.30;;;;;;;;;;5084728;28;20052;-68
2021/10/01 00:06:53;;;;;;;2.58;1.60;;;;;;;;;;5091610;28;20040;-69
2021/10/01 00:09:22;;;;;;;1.95;1.23;;;;;;;;;;5101922;28;20051;-65
2021/10/01 00:11:52;;;;;;;2.33;1.20;;;;;;;;;;5100569;28;20486;-67
2021/10/01 00:14:21;;;;;;;2.35;1.25;;;;;;;;;;5107903;28;20062;-65
2021/10/01 00:16:50;;;;;;;2.20;1.17;;;;;;;;;;5095917;28;20488;-67
2021/10/01 00:19:19;;;;;;;3.92;1.20;;;;;;;;;;5083828;28;20072;-65
2021/10/01 00:21:49;;;;;;;2.83;1.15;;;;;;;;;;5091065;28;20379;-64
2021/10/01 00:24:18;;;;;;;4.80;0.95;;;;;;;;;;5098647;28;20453;-65
2021/10/01 00:26:47;;;;;;;3.20;1.40;;;;;;;;;;5095620;28;20126;-65
2021/10/01 00:29:15;;;;;;;2.03;1.20;;;;;;;;;;5098937;28;20115;-65
2021/10/01 00:31:44;;;;;;;5.68;1.25;;;;;;;;;;5096647;28;20082;-66
2021/10/01 00:34:12;;;;;;;2.50;1.50;;;;;;;;;;5089173;28;20539;-65
2021/10/01 00:36:41;;;;;;;3.47;1.35;;;;;;;;;;5099678;28;20070;-65
2021/10/01 00:39:11;;;;;;;1.90;1.20;;;;;;;;;;5090835;28;20062;-65
2021/10/01 00:41:40;;;;;;;1.60;1.20;;;;;;;;;;5091225;28;20403;-65
2021/10/01 00:44:10;;;;;;;2.63;1.20;;;;;;;;;;5093258;28;20047;-66
2021/10/01 00:46:38;;;;;;;2.13;0.95;;;;;;;;;;5092014;28;20050;-67
2021/10/01 00:49:07;;;;;;;2.13;1.20;;;;;;;;;;5108036;28;20056;-65
2021/10/01 00:51:39;;;;;;;2.15;1.00;;;;;;;;;;5102289;28;20065;-68
2021/10/01 00:54:08;;;;;;;2.75;1.20;;;;;;;;;;5110053;28;20044;-66
2021/10/01 00:56:38;;;;;;;1.60;1.30;;;;;;;;;;5100028;28;20395;-65
2021/10/01 00:59:06;;;;;;;3.53;1.45;;;;;;;;;;5095044;28;20055;-65
2021/10/01 01:01:35;;;;;;;3.05;1.27;;;;;;;;;;5094607;28;20116;-64
2021/10/01 01:04:07;;;;;;;2.03;1.30;;;;;;;;;;5090077;28;20055;-71
2021/10/01 01:06:39;;;;;;;2.40;1.45;;;;;;;;;;5096047;28;20051;-65
2021/10/01 01:09:12;;;;;;;1.88;1.38;;;;;;;;;;5098962;28;20058;-64
2021/10/01 01:11:47;;;;;;;3.90;1.50;;;;;;;;;;5086517;28;20043;-65
2021/10/01 01:14:18;;;;;;;2.22;1.35;;;;;;;;;;5088759;28;20476;-66
2021/10/01 01:16:47;;;;;;;1.65;1.40;;;;;;;;;;5095837;28;20101;-65
2021/10/01 01:19:23;;;;;;;2.03;1.02;;;;;;;;;;5100133;28;20131;-70
2021/10/01 01:21:51;;;;;;;;;;;;;;;;;;5097424;28;20043;-70
2021/10/01 01:24:37;;;;;;;1.63;1.10;;;;;;;;;;5104196;28;19919;-65
2021/10/01 01:27:12;;;;;;;2.72;1.35;;;;;;;;;;5091119;28;20444;-68
2021/10/01 01:29:46;;;;;;;2.88;1.10;;;;;;;;;;5105022;28;20048;-65
2021/10/01 01:32:18;;;;;;;2.53;1.25;;;;;;;;;;5102272;28;20056;-68
2021/10/01 01:34:50;;;;;;;4.28;1.35;;;;;;;;;;5097088;28;20500;-64
2021/10/01 01:37:21;;;;;;;2.25;1.23;;;;;;;;;;5093737;28;20113;-64
2021/10/01 01:39:50;;;;;;;1.75;1.25;;;;;;;;;;5103743;28;20498;-64
2021/10/01 01:42:19;;;;;;;2.25;1.25;;;;;;;;;;5099917;28;20127;-70
2021/10/01 01:44:48;;;;;;;2.63;1.23;;;;;;;;;;5096945;28;20044;-68
2021/10/01 01:47:18;;;;;;;1.80;1.20;;;;;;;;;;5094085;28;20473;-64
2021/10/01 01:49:47;;;;;;;1.58;1.23;;;;;;;;;;5099132;28;20058;-65
2021/10/01 01:52:17;;;;;;;1.88;1.27;;;;;;;;;;5105803;28;20050;-67
2021/10/01 01:54:47;;;;;;;1.60;1.30;;;;;;;;;;5099690;28;20510;-67
2021/10/01 01:57:16;;;;;;;7.22;1.35;;;;;;;;;;5105617;28;20595;-67
2021/10/01 01:59:44;;;;;;;2.45;1.20;;;;;;;;;;5082830;28;20036;-67
2021/10/01 02:02:14;;;;;;;4.55;1.55;;;;;;;;;;5098493;28;20048;-68
2021/10/01 02:04:45;;;;;;;2.95;1.40;;;;;;;;;;5102530;28;20056;-66
2021/10/01 02:07:13;;;;;;;3.28;1.52;;;;;;;;;;5098264;28;20055;-66
2021/10/01 02:09:43;;;;;;;2.97;1.35;;;;;;;;;;5094569;28;20055;-65
2021/10/01 02:12:12;;;;;;;4.20;1.50;;;;;;;;;;5094154;28;20052;-64
2021/10/01 02:14:41;;;;;;;2.80;1.45;;;;;;;;;;5102190;28;20072;-65
2021/10/01 02:17:11;;;;;;;5.32;1.55;;;;;;;;;;5107676;28;20056;-68
2021/10/01 02:19:42;;;;;;;1.30;1.20;;;;;;;;;;5097862;28;20082;-65
2021/10/01 02:22:12;;;;;;;2.53;1.58;;;;;;;;;;5095234;28;20135;-65
2021/10/01 02:24:41;;;;;;;3.53;1.15;;;;;;;;;;5095245;28;20527;-64
2021/10/01 02:27:11;;;;;;;3.22;1.40;;;;;;;;;;5094134;28;20173;-66
2021/10/01 02:29:43;;;;;;;3.22;1.15;;;;;;;;;;5100862;28;20096;-68
2021/10/01 02:32:14;;;;;;;2.20;1.45;;;;;;;;;;5097930;28;20126;-65
2021/10/01 02:34:44;;;;;;;2.95;1.48;;;;;;;;;;5101515;28;20056;-64
2021/10/01 02:37:14;;;;;;;3.85;1.45;;;;;;;;;;5100705;28;20047;-64
2021/10/01 02:39:44;;;;;;;1.52;1.20;;;;;;;;;;5095125;28;20428;-65
2021/10/01 02:42:14;;;;;;;1.63;1.30;;;;;;;;;;5106054;28;20092;-65
2021/10/01 02:44:43;;;;;;;2.33;1.30;;;;;;;;;;5091474;28;20048;-65
2021/10/01 02:47:11;;;;;;;3.25;1.63;;;;;;;;;;5092158;28;20094;-64
2021/10/01 02:49:40;;;;;;;3.75;1.48;;;;;;;;;;5093272;28;20078;-65
2021/10/01 02:52:13;;;;;;;2.03;1.50;;;;;;;;;;5093734;28;20060;-65
2021/10/01 02:54:47;;;;;;;3.25;1.50;;;;;;;;;;5090961;28;20077;-72
2021/10/01 02:57:17;;;;;;;2.42;1.35;;;;;;;;;;5092607;28;20075;-65
2021/10/01 02:59:46;;;;;;;2.42;1.58;;;;;;;;;;5078766;28;20130;-65
2021/10/01 03:02:15;;;;;;;1.98;1.20;;;;;;;;;;5105018;28;20098;-66
2021/10/01 03:04:46;;;;;;;4.07;1.42;;;;;;;;;;5098098;28;20467;-68
2021/10/01 03:07:15;;;;;;;2.03;1.45;;;;;;;;;;5095856;28;20071;-68
2021/10/01 03:09:48;;;;;;;2.65;1.95;;;;;;;;;;5105102;28;20076;-73
2021/10/01 03:12:19;;;;;;;4.63;1.63;;;;;;;;;;5112050;28;20427;-67
2021/10/01 03:14:48;;;;;;;3.67;1.50;;;;;;;;;;5106669;28;20056;-65
2021/10/01 03:17:17;;;;;;;2.38;1.67;;;;;;;;;;5092964;28;20071;-65
2021/10/01 03:19:46;;;;;;;2.60;1.90;;;;;;;;;;5098145;28;20119;-64
2021/10/01 03:22:15;;;;;;;2.72;1.40;;;;;;;;;;5102815;28;20087;-68
2021/10/01 03:24:46;;;;;;;2.92;1.65;;;;;;;;;;5093381;28;20507;-70
2021/10/01 03:27:16;;;;;;;3.30;1.10;;;;;;;;;;4707357;28;10001833;-65
2021/10/01 03:29:44;;;;;;;4.93;1.45;;;;;;;;;;700318;28;10002027;-71
2021/10/01 03:32:12;;;;;;;3.20;1.50;;;;;;;;;;5091815;28;20079;-66
2021/10/01 03:34:41;;;;;;;2.58;1.50;;;;;;;;;;5090669;28;20052;-66
2021/10/01 03:37:10;;;;;;;2.38;1.30;;;;;;;;;;5091888;28;20078;-67
2021/10/01 03:39:39;;;;;;;3.08;1.60;;;;;;;;;;5091167;28;20091;-70
2021/10/01 03:42:09;;;;;;;2.10;1.23;;;;;;;;;;5091242;28;20109;-65
2021/10/01 03:44:37;;;;;;;4.00;1.30;;;;;;;;;;5095261;28;20130;-68
2021/10/01 03:47:05;;;;;;;1.52;1.00;;;;;;;;;;5095627;28;20082;-65
2021/10/01 03:49:34;;;;;;;3.40;1.35;;;;;;;;;;5095696;28;20134;-66
2021/10/01 03:52:02;;;;;;;2.65;1.45;;;;;;;;;;5095230;28;20590;-65
2021/10/01 03:54:31;;;;;;;2.15;1.30;;;;;;;;;;5090416;28;20474;-64
2021/10/01 03:56:59;;;;;;;1.98;1.30;;;;;;;;;;5090458;28;20424;-66
2021/10/01 03:59:29;;;;;;;2.45;1.38;;;;;;;;;;5098089;28;20098;-65
2021/10/01 04:01:57;;;;;;;4.88;1.35;;;;;;;;;;5090911;28;20059;-68
2021/10/01 04:04:26;;;;;;;3.50;1.42;;;;;;;;;;5107130;28;20063;-65
2021/10/01 04:06:54;;;;;;;4.47;1.23;;;;;;;;;;5107438;28;20051;-65
2021/10/01 04:09:23;;;;;;;4.43;1.40;;;;;;;;;;5104241;28;20116;-70
2021/10/01 04:11:53;;;;;;;2.75;1.42;;;;;;;;;;5090214;28;20135;-64
2021/10/01 04:14:22;;;;;;;2.50;1.48;;;;;;;;;;5095533;28;20581;-65
2021/10/01 04:16:52;;;;;;;2.90;1.30;;;;;;;;;;5095029;28;20105;-65
2021/10/01 04:19:20;;;;;;;2.28;1.33;;;;;;;;;;5090984;28;20464;-65
2021/10/01 04:22:04;;;;;;;1.98;1.42;;;;;;;;;;5088989;28;20059;-65
2021/10/01 04:24:33;;;;;;;1.77;1.20;;;;;;;;;;5087215;28;20040;-68
2021/10/01 04:27:01;;;;;;;3.72;1.30;;;;;;;;;;5085963;28;20127;-65
2021/10/01 04:29:29;;;;;;;1.85;1.45;;;;;;;;;;5105169;28;20089;-69
2021/10/01 04:32:01;;;;;;;4.65;1.27;;;;;;;;;;5095360;28;20399;-65
2021/10/01 04:34:33;;;;;;;2.28;1.40;;;;;;;;;;5092578;28;20043;-66
2021/10/01 04:37:01;;;;;;;2.38;1.30;;;;;;;;;;5088084;28;20079;-67
2021/10/01 04:39:29;;;;;;;3.00;1.58;;;;;;;;;;5090136;28;20083;-69
2021/10/01 04:41:58;;;;;;;2.30;1.38;;;;;;;;;;5090232;28;20094;-66
2021/10/01 04:44:26;;;;;;;2.58;1.30;;;;;;;;;;5090120;28;20074;-67
2021/10/01 04:46:54;;;;;;;2.63;1.50;;;;;;;;;;5087252;28;20036;-69
2021/10/01 04:49:25;;;;;;;6.53;1.42;;;;;;;;;;5089914;28;20098;-66
2021/10/01 04:51:53;;;;;;;2.22;1.30;;;;;;;;;;5091592;28;20147;-68
2021/10/01 04:54:21;;;;;;;0.93;0.93;;;;;;;;;;5098742;28;20090;-68
2021/10/01 04:56:49;;;;;;;2.08;1.20;;;;;;;;;;5083452;28;20132;-64
2021/10/01 04:59:19;;;;;;;2.38;1.50;;;;;;;;;;5087849;28;20132;-71
2021/10/01 05:01:52;;;;;;;2.17;1.17;;;;;;;;;;5091887;28;20103;-71
2021/10/01 05:04:20;;;;;;;2.75;1.40;;;;;;;;;;5086356;28;20139;-65
2021/10/01 05:06:50;;;;;;;2.05;1.30;;;;;;;;;;5087627;28;20044;-66
2021/10/01 05:09:18;;;;;;;1.98;1.33;;;;;;;;;;5104955;28;20563;-65
2021/10/01 05:11:47;;;;;;;1.88;1.20;;;;;;;;;;5098714;28;20071;-69
2021/10/01 05:14:15;;;;;;;3.88;1.45;;;;;;;;;;5105621;28;20044;-66
2021/10/01 05:16:45;;;;;;;3.15;1.55;;;;;;;;;;5084437;28;20127;-69
2021/10/01 05:19:15;;;;;;;3.83;1.23;;;;;;;;;;5090495;28;20816;-73
2021/10/01 05:21:43;;;;;;;1.75;1.23;;;;;;;;;;5089881;28;20052;-67
2021/10/01 05:24:14;;;;;;;2.20;1.40;;;;;;;;;;5085156;28;20086;-66
2021/10/01 05:26:43;;;;;;;1.33;1.15;;;;;;;;;;5086274;28;20112;-65
2021/10/01 05:29:12;;;;;;;3.05;1.17;;;;;;;;;;5098487;28;20127;-65
2021/10/01 05:31:40;;;;;;;2.05;1.30;;;;;;;;;;5095564;28;20083;-66
2021/10/01 05:34:08;;;;;;;3.85;1.50;;;;;;;;;;5088901;28;20091;-67
2021/10/01 05:36:37;;;;;;;3.53;1.30;;;;;;;;;;5089105;28;20071;-73
2021/10/01 05:39:06;;;;;;;2.28;1.30;;;;;;;;;;5086968;28;20062;-67
2021/10/01 05:41:35;;;;;;;1.30;0.95;;;;;;;;;;5093726;28;20047;-73
2021/10/01 05:44:04;;;;;;;3.05;1.48;;;;;;;;;;5089691;28;20056;-68
2021/10/01 05:46:33;;;;;;;2.15;1.52;;;;;;;;;;5085298;28;20048;-67
2021/10/01 05:49:02;;;;;;;2.47;1.50;;;;;;;;;;5091068;28;20056;-71
2021/10/01 05:51:31;;;;;;;2.78;1.30;;;;;;;;;;5095352;28;20528;-69
2021/10/01 05:56:45;;;;;;;;;;;;;;;;;;5095622;28;20082;-69
2021/10/01 05:59:15;;;;;;;2.65;1.42;;;;;;;;;;5086322;28;20326;-71
2021/10/01 06:01:44;;;;;;;1.65;1.30;;;;;;;;;;5092895;28;20104;-70
2021/10/01 06:04:13;;;;;;;2.33;1.17;;;;;;;;;;5106209;28;20461;-65
2021/10/01 06:06:41;;;;;;;1.77;1.20;;;;;;;;;;5099869;28;20449;-67
2021/10/01 06:09:11;;;;;;;4.60;1.35;;;;;;;;;;5082733;28;20393;-69
2021/10/01 06:11:41;;;;;;;4.40;1.27;;;;;;;;;;5084661;28;20134;-66
2021/10/01 06:14:11;;;;;;;2.58;1.23;;;;;;;;;;5079367;28;20127;-67
2021/10/01 06:16:40;;;;;;;2.33;1.30;;;;;;;;;;5089897;28;20277;-66
2021/10/01 06:19:09;;;;;;;4.60;1.60;;;;;;;;;;5101955;28;20097;-70
2021/10/01 06:21:38;;;;;;;6.63;1.50;;;;;;;;;;5087071;28;20055;-69
2021/10/01 06:24:07;;;;;;;2.20;1.33;;;;;;;;;;5090085;28;20104;-69
2021/10/01 06:26:35;;;;;;;2.38;1.38;;;;;;;;;;5089853;28;20052;-65
2021/10/01 06:29:04;;;;;;;2.45;1.38;;;;;;;;;;5091641;28;20060;-65
2021/10/01 06:31:33;;;;;;;3.80;1.40;;;;;;;;;;5084076;28;20200;-68
2021/10/01 06:34:03;;;;;;;3.45;1.40;;;;;;;;;;5089044;28;20048;-65
2021/10/01 06:36:32;;;;;;;2.55;1.45;;;;;;;;;;5088769;28;20051;-68
2021/10/01 06:39:00;;;;;;;3.88;1.60;;;;;;;;;;5092078;28;20062;-67
2021/10/01 06:41:29;;;;;;;4.05;1.35;;;;;;;;;;5088171;28;20446;-69
2021/10/01 06:43:59;;;;;;;2.47;1.63;;;;;;;;;;5081291;28;20407;-68
2021/10/01 06:46:35;;;;;;;4.25;1.45;;;;;;;;;;5088027;28;20040;-66
2021/10/01 06:49:19;;;;;;;2.45;1.50;;;;;;;;;;5089309;28;20040;-67
2021/10/01 06:52:02;;;;;;;3.38;1.58;;;;;;;;;;5083129;28;20052;-69
2021/10/01 08:20:35;;;;;;;5.53;2.45;;;;;;;;;;5096108;28;20043;-68
2021/10/01 08:23:04;;;;;;;8.35;2.17;;;;;;;;;;5093920;28;20044;-65
2021/10/01 08:25:33;;;;;;;5.43;2.22;;;;;;;;;;5097371;28;20071;-65
2021/10/01 08:28:04;;;;;;;3.15;2.20;;;;;;;;;;5091776;28;20052;-68
2021/10/01 08:30:32;;;;;;;2.28;1.88;;;;;;;;;;5082274;28;20056;-66
2021/10/01 08:33:01;;;;;;;3.58;1.63;;;;;;;;;;5100059;28;20082;-66
2021/10/01 08:35:30;;;;;;;3.20;2.08;;;;;;;;;;5094276;28;20055;-68
2021/10/01 08:37:59;;;;;;;3.10;1.85;;;;;;;;;;5088042;28;20044;-68
2021/10/01 08:40:28;;;;;;;5.45;1.92;;;;;;;;;;5093135;28;20113;-65
2021/10/01 08:42:57;;;;;;;2.65;1.88;;;;;;;;;;5092109;28;20052;-68
2021/10/01 08:45:28;;;;;;;3.00;1.42;;;;;;;;;;5093840;28;20051;-69
2021/10/01 08:47:58;;;;;;;3.95;1.50;;;;;;;;;;5092903;28;20056;-65
2021/10/01 08:50:28;;;;;;;2.13;1.52;;;;;;;;;;5093018;28;20039;-65
2021/10/01 08:52:59;;;;;;;2.25;1.50;;;;;;;;;;5088259;28;20044;-68
2021/10/01 08:55:29;;;;;;;1.67;1.45;;;;;;;;;;5090298;28;20131;-65
2021/10/01 08:57:59;;;;;;;1.88;1.42;;;;;;;;;;5093367;28;20052;-65
2021/10/01 09:00:30;;;;;;;2.00;1.38;;;;;;;;;;5097133;28;20047;-65
2021/10/01 09:02:59;;;;;;;3.30;1.67;;;;;;;;;;5097216;28;20052;-67
2021/10/01 09:05:28;;;;;;;1.75;1.38;;;;;;;;;;5091655;28;20054;-68
2021/10/01 09:08:10;;;;;;;4.55;1.50;;;;;;;;;;5087120;28;20044;-67
2021/10/01 09:10:38;;;;;;;4.15;1.30;;;;;;;;;;5092645;28;20497;-66
2021/10/01 09:13:09;;;;;;;2.15;1.15;;;;;;;;;;5082241;28;20044;-65
2021/10/01 09:15:43;;;;;;;2.40;1.42;;;;;;;;;;5091135;28;20090;-69
2021/10/01 09:18:13;;;;;;;3.08;1.23;;;;;;;;;;5081312;28;20044;-70
2021/10/01 09:20:43;;;;;;;2.10;1.35;;;;;;;;;;5087502;28;20063;-65
2021/10/01 09:23:12;;;;;;;2.22;1.17;;;;;;;;;;5087122;28;20075;-65
2021/10/01 09:25:41;;;;;;;3.22;1.05;;;;;;;;;;5090672;28;20048;-65
2021/10/01 09:28:12;;;;;;;2.78;1.08;;;;;;;;;;5084527;28;20048;-65
2021/10/01 09:30:47;;;;;;;2.38;1.20;;;;;;;;;;5086454;28;20060;-65
2021/10/01 09:33:16;;;;;;;3.00;1.30;;;;;;;;;;5088748;28;20220;-71
2021/10/01 09:35:46;;;;;;;1.85;1.05;;;;;;;;;;5090466;28;20469;-71
2021/10/01 09:38:15;;;;;;;3.13;1.40;;;;;;;;;;5091676;28;20046;-66
2021/10/01 09:40:45;;;;;;;2.88;1.38;;;;;;;;;;5100617;28;20051;-69
2021/10/01 09:43:27;;;;;;;5.50;1.40;;;;;;;;;;5096908;28;20058;-67
2021/10/01 09:46:05;;;;;;;2.03;1.10;;;;;;;;;;5089954;28;20043;-72
2021/10/01 09:48:36;;;;;;;2.97;1.00;;;;;;;;;;5097277;28;20052;-64
2021/10/01 09:51:10;;;;;;;3.60;1.30;;;;;;;;;;5096432;28;20395;-65
2021/10/01 09:53:45;;;;;;;1.98;0.90;;;;;;;;;;5084914;28;20044;-72
2021/10/01 09:56:13;;;;;;;;;;;;;;;;;;5092918;28;20043;-64
2021/10/01 09:58:43;;;;;;;1.85;0.93;;;;;;;;;;5098217;28;19920;-65
2021/10/01 10:01:14;;;;;;;1.20;0.82;;;;;;;;;;5092847;28;20047;-71
2021/10/01 10:03:42;;;;;;;1.35;0.90;;;;;;;;;;5094194;28;20070;-70
2021/10/01 10:06:13;;;;;;;2.53;1.02;;;;;;;;;;5094546;28;20044;-66
2021/10/01 10:08:43;;;;;;;2.83;0.88;;;;;;;;;;5088887;28;20051;-66
2021/10/01 10:11:13;;;;;;;1.10;0.70;;;;;;;;;;5095896;28;20040;-66
2021/10/01 10:13:46;;;;;;;4.38;0.98;;;;;;;;;;5093177;28;20101;-74
2021/10/01 10:16:18;;;;;;;1.65;0.90;;;;;;;;;;5094882;28;20039;-69
2021/10/01 10:18:48;;;;;;;1.63;0.80;;;;;;;;;;5093574;28;20507;-67
2021/10/01 10:21:17;;;;;;;2.03;1.05;;;;;;;;;;5111682;28;20101;-68
2021/10/01 10:23:46;;;;;;;1.70;1.00;;;;;;;;;;5095295;28;20040;-67
2021/10/01 10:26:15;;;;;;;1.83;1.00;;;;;;;;;;5100324;28;20050;-66
2021/10/01 10:28:45;;;;;;;1.85;1.00;;;;;;;;;;5097758;28;20066;-67
2021/10/01 10:31:15;;;;;;;1.42;0.70;;;;;;;;;;5094903;28;20052;-66
2021/10/01 10:33:47;;;;;;;3.25;0.90;;;;;;;;;;5095575;28;20071;-66
2021/10/01 10:36:29;;;;;;;1.50;0.82;;;;;;;;;;5092462;28;20043;-68
2021/10/01 10:38:58;;;;;;;6.25;0.80;;;;;;;;;;5088861;28;20047;-66
2021/10/01 10:41:28;;;;;;;1.90;0.90;;;;;;;;;;5090526;28;20075;-66
2021/10/01 10:43:56;;;;;;;1.02;0.90;;;;;;;;;;5093996;28;20036;-66
2021/10/01 10:46:40;;;;;;;1.42;0.82;;;;;;;;;;5094478;28;20051;-66
2021/10/01 10:49:22;;;;;;;2.67;0.77;;;;;;;;;;5094761;28;20044;-66
2021/10/01 10:52:09;;;;;;;1.33;0.73;;;;;;;;;;5103865;28;20053;-66
2021/10/01 10:54:39;;;;;;;1.70;0.85;;;;;;;;;;5104206;28;20056;-66
2021/10/01 10:57:28;;;;;;;1.45;0.85;;;;;;;;;;5091842;28;20750;-66
2021/10/01 10:59:58;;;;;;;1.98;0.90;;;;;;;;;;5093268;28;20067;-66
2021/10/01 11:02:29;;;;;;;2.53;0.90;;;;;;;;;;5105808;28;20044;-66
2021/10/01 11:05:16;;;;;;;1.23;0.82;;;;;;;;;;5095207;28;20474;-66
2021/10/01 11:07:48;;;;;;;1.58;0.95;;;;;;;;;;5088432;28;20131;-75
2021/10/01 11:10:36;;;;;;;2.35;0.80;;;;;;;;;;5103529;28;20103;-70
2021/10/01 11:13:23;;;;;;;1.60;0.98;;;;;;;;;;5099873;28;20135;-66
2021/10/01 11:16:11;;;;;;;1.77;0.70;;;;;;;;;;5097711;28;20058;-66
2021/10/01 11:18:59;;;;;;;0.73;0.68;;;;;;;;;;5085630;28;20048;-70
2021/10/01 11:21:32;;;;;;;2.25;0.80;;;;;;;;;;5090218;28;20044;-66
2021/10/01 11:24:04;;;;;;;1.25;0.82;;;;;;;;;;5084591;28;20460;-68
2021/10/01 11:26:39;;;;;;;1.58;0.80;;;;;;;;;;5080907;28;20044;-66
2021/10/01 11:29:20;;;;;;;0.63;0.50;;;;;;;;;;5096695;28;20047;-65
2021/10/01 11:31:49;;;;;;;1.60;0.85;;;;;;;;;;5099268;28;20130;-71
2021/10/01 11:34:18;;;;;;;2.53;0.88;;;;;;;;;;5094166;28;20544;-70
2021/10/01 11:36:47;;;;;;;1.45;0.80;;;;;;;;;;5099432;28;20094;-69
2021/10/01 11:39:17;;;;;;;4.47;1.27;;;;;;;;;;5103132;28;20055;-69
2021/10/01 11:41:47;;;;;;;0.95;0.70;;;;;;;;;;5090562;28;20047;-70
2021/10/01 11:44:16;;;;;;;2.33;0.80;;;;;;;;;;5092559;28;20085;-70
2021/10/01 11:46:45;;;;;;;2.15;0.70;;;;;;;;;;5088634;28;20044;-68
2021/10/01 11:49:18;;;;;;;0.90;0.63;;;;;;;;;;5092678;28;20052;-72
2021/10/01 11:52:07;;;;;;;1.17;0.90;;;;;;;;;;5090820;28;20051;-66
2021/10/01 11:54:38;;;;;;;1.92;0.80;;;;;;;;;;5094611;28;20472;-66
2021/10/01 11:57:09;;;;;;;1.83;0.75;;;;;;;;;;5092121;28;20138;-70
2021/10/01 11:59:51;;;;;;;2.20;1.00;;;;;;;;;;5091850;28;20101;-66
2021/10/01 12:02:30;;;;;;;3.65;0.75;;;;;;;;;;5093077;28;20059;-65
2021/10/01 12:04:59;;;;;;;1.48;0.75;;;;;;;;;;5086887;28;20044;-66
2021/10/01 12:07:28;;;;;;;1.20;0.82;;;;;;;;;;5091121;28;20131;-69
2021/10/01 12:10:07;;;;;;;1.67;0.90;;;;;;;;;;5084878;28;20097;-66
2021/10/01 12:12:56;;;;;;;1.50;0.75;;;;;;;;;;5091057;28;20118;-68
2021/10/01 12:15:34;;;;;;;1.45;0.68;;;;;;;;;;5056098;28;20055;-65
2021/10/01 12:18:03;;;;;;;1.45;0.90;;;;;;;;;;5091890;28;20325;-65
2021/10/01 12:20:44;;;;;;;2.03;0.75;;;;;;;;;;5089633;28;20051;-65
2021/10/01 12:23:24;;;;;;;1.30;0.95;;;;;;;;;;5090621;28;20044;-65
2021/10/01 12:25:55;;;;;;;1.23;0.93;;;;;;;;;;5087170;28;20476;-65
2021/10/01 12:28:24;;;;;;;3.28;0.90;;;;;;;;;;5089271;28;20093;-66
2021/10/01 12:31:02;;;;;;;2.58;0.90;;;;;;;;;;5088552;28;20051;-66
2021/10/01 12:33:31;;;;;;;4.53;0.77;;;;;;;;;;5089756;28;20040;-65
2021/10/01 12:36:01;;;;;;;2.33;0.60;;;;;;;;;;5090560;28;20044;-65
2021/10/01 12:38:29;;;;;;;1.60;0.65;;;;;;;;;;5089928;28;20438;-65
2021/10/01 12:41:13;;;;;;;1.67;0.90;;;;;;;;;;5089567;28;20051;-65
2021/10/01 12:43:46;;;;;;;1.52;0.60;;;;;;;;;;5087294;28;20066;-65
2021/10/01 12:46:31;;;;;;;1.42;0.90;;;;;;;;;;5090703;28;20410;-64
2021/10/01 12:49:11;;;;;;;1.75;0.75;;;;;;;;;;5085115;28;20060;-65
2021/10/01 12:51:40;;;;;;;1.02;0.60;;;;;;;;;;5090584;28;20083;-65
2021/10/01 12:54:22;;;;;;;1.27;0.88;;;;;;;;;;5089671;28;20201;-65
2021/10/01 12:57:05;;;;;;;1.65;0.70;;;;;;;;;;5089607;28;20185;-69
2021/10/01 12:59:39;;;;;;;1.15;0.85;;;;;;;;;;5089165;28;20345;-67
2021/10/01 13:02:08;;;;;;;1.52;0.88;;;;;;;;;;5086204;28;20052;-65
2021/10/01 13:04:51;;;;;;;1.38;0.70;;;;;;;;;;5089727;28;20075;-65
2021/10/01 13:07:25;;;;;;;3.50;0.60;;;;;;;;;;5087752;28;20055;-68
2021/10/01 13:09:54;;;;;;;1.23;0.70;;;;;;;;;;5078146;28;20048;-64
2021/10/01 13:12:29;;;;;;;0.45;0.45;;;;;;;;;;5070570;28;20048;-65
2021/10/01 13:15:15;;;;;;;0.60;0.60;;;;;;;;;;5083713;28;20052;-65
2021/10/01 13:17:59;;;;;;;1.65;0.70;;;;;;;;;;5086887;28;20044;-69
2021/10/01 13:20:29;;;;;;;2.72;0.68;;;;;;;;;;5089436;28;20055;-69
2021/10/01 13:23:01;;;;;;;0.90;0.70;;;;;;;;;;5089540;28;20112;-65
2021/10/01 13:25:30;;;;;;;1.08;0.73;;;;;;;;;;5090416;28;20110;-65
2021/10/01 13:28:00;;;;;;;4.13;0.57;;;;;;;;;;5089901;28;20101;-67
2021/10/01 13:30:29;;;;;;;1.95;0.70;;;;;;;;;;5081472;28;20372;-70
2021/10/01 13:32:59;;;;;;;2.13;0.90;;;;;;;;;;5090072;28;20450;-65
2021/10/01 13:35:28;;;;;;;0.80;0.70;;;;;;;;;;5089495;28;20094;-74
2021/10/01 13:37:57;;;;;;;1.20;0.73;;;;;;;;;;5088575;28;20484;-65
2021/10/01 13:40:26;;;;;;;1.63;0.60;;;;;;;;;;5091760;28;20544;-66
2021/10/01 13:42:54;;;;;;;1.15;0.70;;;;;;;;;;5090359;28;20070;-68
2021/10/01 13:45:24;;;;;;;1.48;0.80;;;;;;;;;;5090483;28;20056;-65
2021/10/01 13:47:52;;;;;;;0.75;0.65;;;;;;;;;;5090568;28;20044;-71
2021/10/01 13:50:23;;;;;;;1.23;0.73;;;;;;;;;;5087955;28;20082;-67
2021/10/01 13:52:51;;;;;;;1.38;0.85;;;;;;;;;;5070337;28;20045;-65
2021/10/01 13:55:20;;;;;;;3.28;0.60;;;;;;;;;;5098457;28;20051;-67
2021/10/01 13:57:52;;;;;;;1.52;0.60;;;;;;;;;;5091500;28;20051;-64
2021/10/01 14:00:23;;;;;;;0.65;0.60;;;;;;;;;;5090547;28;20055;-65
2021/10/01 14:02:51;;;;;;;0.98;0.60;;;;;;;;;;5090496;28;20067;-66
2021/10/01 14:05:20;;;;;;;2.00;0.93;;;;;;;;;;5089704;28;20518;-67
2021/10/01 14:07:50;;;;;;;1.02;0.70;;;;;;;;;;5086876;28;20075;-71
2021/10/01 14:10:23;;;;;;;1.10;0.68;;;;;;;;;;5090122;28;20048;-65
2021/10/01 14:12:51;;;;;;;1.00;0.65;;;;;;;;;;5081192;28;20452;-65
2021/10/01 14:15:20;;;;;;;1.45;0.60;;;;;;;;;;5098032;28;21997;-65
2021/10/01 14:17:49;;;;;;;1.33;0.73;;;;;;;;;;5090246;28;20422;-66
2021/10/01 14:20:18;;;;;;;1.02;0.80;;;;;;;;;;5092739;28;20147;-72
2021/10/01 14:22:47;;;;;;;1.52;0.73;;;;;;;;;;5084142;28;20052;-70
2021/10/01 14:25:18;;;;;;;1.67;0.80;;;;;;;;;;5090099;28;20048;-70
2021/10/01 14:27:46;;;;;;;1.65;0.80;;;;;;;;;;5088525;28;20134;-73
2021/10/01 14:30:16;;;;;;;0.80;0.70;;;;;;;;;;5091062;28;20059;-68
2021/10/01 14:32:45;;;;;;;1.05;0.60;;;;;;;;;;5089819;28;20525;-68
2021/10/01 14:35:34;;;;;;;0.75;0.60;;;;;;;;;;5038780;28;20445;-65
2021/10/01 14:38:07;;;;;;;0.93;0.63;;;;;;;;;;5089286;28;20045;-65
2021/10/01 14:40:38;;;;;;;1.05;0.70;;;;;;;;;;5089734;28;20144;-68
2021/10/01 14:43:20;;;;;;;2.30;0.80;;;;;;;;;;5093702;28;20058;-66
2021/10/01 14:45:51;;;;;;;2.05;0.80;;;;;;;;;;5100050;28;20312;-66
2021/10/01 14:48:20;;;;;;;1.08;0.82;;;;;;;;;;5089604;28;20150;-65
2021/10/01 14:50:48;;;;;;;1.20;0.85;;;;;;;;;;5088270;28;20105;-69
2021/10/01 14:53:17;;;;;;;1.75;0.63;;;;;;;;;;5089268;28;20495;-72
2021/10/01 14:55:47;;;;;;;0.82;0.75;;;;;;;;;;5089032;28;20101;-66
2021/10/01 14:58:17;;;;;;;1.42;0.70;;;;;;;;;;5089366;28;20084;-67
2021/10/01 15:00:47;;;;;;;1.27;0.73;;;;;;;;;;5097480;28;20066;-69
2021/10/01 15:03:16;;;;;;;1.73;0.88;;;;;;;;;;5088836;28;20514;-66
2021/10/01 15:05:45;;;;;;;1.92;0.90;;;;;;;;;;5088509;28;20051;-68
2021/10/01 15:08:13;;;;;;;1.10;0.60;;;;;;;;;;5085519;28;20044;-65
2021/10/01 15:10:42;;;;;;;1.92;0.60;;;;;;;;;;5095015;28;20079;-69
2021/10/01 15:13:11;;;;;;;1.10;0.90;;;;;;;;;;5088158;28;20131;-65
2021/10/01 15:15:41;;;;;;;2.58;0.70;;;;;;;;;;5088735;28;20479;-67
2021/10/01 15:18:10;;;;;;;1.45;0.70;;;;;;;;;;5088952;28;20052;-66
2021/10/01 15:20:41;;;;;;;2.40;0.70;;;;;;;;;;5087773;28;20052;-69
2021/10/01 15:23:10;;;;;;;2.95;0.80;;;;;;;;;;5081754;28;20051;-67
2021/10/01 15:25:40;;;;;;;1.70;0.82;;;;;;;;;;5084838;28;20048;-65
2021/10/01 15:28:09;;;;;;;2.97;0.98;;;;;;;;;;5091291;28;20066;-65
2021/10/01 15:30:39;;;;;;;1.10;0.70;;;;;;;;;;5088607;28;20087;-75
2021/10/01 15:33:08;;;;;;;1.40;0.80;;;;;;;;;;5090465;28;20052;-65
2021/10/01 15:35:36;;;;;;;1.33;0.77;;;;;;;;;;5087710;28;20452;-65
2021/10/01 15:38:06;;;;;;;1.65;0.75;;;;;;;;;;5090496;28;20127;-65
2021/10/01 15:40:35;;;;;;;2.65;0.90;;;;;;;;;;5091659;28;20143;-64
2021/10/01 15:43:04;;;;;;;2.05;0.73;;;;;;;;;;5086912;28;20484;-65
2021/10/01 15:45:32;;;;;;;1.95;0.70;;;;;;;;;;5091403;28;20056;-67
2021/10/01 15:48:02;;;;;;;1.05;0.90;;;;;;;;;;5087885;28;20059;-65
2021/10/01 15:50:31;;;;;;;2.90;0.80;;;;;;;;;;5091195;28;20566;-65
2021/10/01 15:52:59;;;;;;;2.30;1.05;;;;;;;;;;5087734;28;20043;-65
2021/10/01 15:55:27;;;;;;;2.00;0.90;;;;;;;;;;5089203;28;20087;-68
2021/10/01 15:57:56;;;;;;;1.10;0.73;;;;;;;;;;5089883;28;20534;-65
2021/10/01 16:00:24;;;;;;;1.77;0.70;;;;;;;;;;5076189;28;20559;-70
2021/10/01 16:02:54;;;;;;;1.00;0.65;;;;;;;;;;5090056;28;20105;-70
2021/10/01 16:05:24;;;;;;;1.10;0.90;;;;;;;;;;5087995;28;20040;-65
2021/10/01 16:07:54;;;;;;;1.35;0.95;;;;;;;;;;5090355;28;20048;-67
2021/10/01 16:10:22;;;;;;;0.95;0.70;;;;;;;;;;5091357;28;20134;-65
2021/10/01 16:12:56;;;;;;;1.23;0.90;;;;;;;;;;5090813;28;20060;-66
2021/10/01 16:15:25;;;;;;;0.90;0.63;;;;;;;;;;5089348;28;20048;-65
2021/10/01 16:17:53;;;;;;;1.40;0.95;;;;;;;;;;5088033;28;20153;-68
2021/10/01 16:20:26;;;;;;;1.80;0.80;;;;;;;;;;5079813;28;20068;-68
2021/10/01 16:22:56;;;;;;;1.00;0.70;;;;;;;;;;5088944;28;20040;-65
2021/10/01 16:25:25;;;;;;;2.72;1.00;;;;;;;;;;5083824;28;20588;-65
2021/10/01 16:27:54;;;;;;;0.93;0.80;;;;;;;;;;5072376;28;20079;-68
2021/10/01 16:30:23;;;;;;;1.67;0.88;;;;;;;;;;5088496;28;20122;-65
2021/10/01 16:32:52;;;;;;;1.60;0.80;;;;;;;;;;5087364;28;20044;-70
2021/10/01 16:35:20;;;;;;;1.33;0.95;;;;;;;;;;5096642;28;20040;-65